Time;durP1;ratioP1;P1;durP2;ratioP2;P2;SDS_P1;SDS_P2;PMS_P1;PMS_P2;Temp;Humidity;BMP_temperature;BMP_pressure;BME280_temperature;BME280_humidity;BME280_pressure;Samples;Min_cycle;Max_cycle;Signal;HPM_P1;HPM_P2
2023/12/20 05:00:46;;;;;;;1.00;0.90;;;5.30;97.30;;;;;;5964645;23;20472;-87
2023/12/20 05:03:11;;;;;;;0.90;0.80;;;5.30;97.30;;;;;;4996061;28;20436;-87
2023/12/20 05:05:38;;;;;;;3.33;3.03;;;5.30;97.30;;;;;;4996392;28;20174;-87
2023/12/20 05:08:04;;;;;;;1.17;1.07;;;5.30;97.30;;;;;;4995995;28;20334;-86
2023/12/20 05:10:29;;;;;;;0.90;0.90;;;5.40;97.30;;;;;;4993975;28;20416;-87
2023/12/20 05:12:54;;;;;;;1.47;1.37;;;5.40;97.30;;;;;;4975593;28;20216;-88
2023/12/20 05:15:29;;;;;;;1.50;1.40;;;5.40;97.30;;;;;;4976109;28;20201;-88
2023/12/20 05:17:54;;;;;;;1.00;0.90;;;5.40;97.30;;;;;;4986944;28;20178;-88
2023/12/20 05:20:20;;;;;;;1.27;1.17;;;5.40;97.30;;;;;;4976692;28;20417;-88
2023/12/20 05:22:45;;;;;;;2.03;1.03;;;5.40;97.30;;;;;;4976511;28;20886;-88
2023/12/20 05:25:11;;;;;;;0.97;0.87;;;5.50;97.30;;;;;;4976650;28;20173;-88
2023/12/20 05:27:37;;;;;;;1.17;1.17;;;5.50;97.30;;;;;;4975606;28;20591;-88
2023/12/20 05:30:04;;;;;;;1.30;1.20;;;5.50;97.30;;;;;;4975147;28;20170;-89
2023/12/20 05:32:31;;;;;;;1.10;1.00;;;5.40;97.30;;;;;;4975408;28;20240;-89
2023/12/20 05:34:56;;;;;;;1.90;1.20;;;5.40;97.30;;;;;;4975263;28;20432;-89
2023/12/20 05:37:22;;;;;;;1.20;1.10;;;5.40;97.30;;;;;;4975053;28;20530;-88
2023/12/20 05:39:47;;;;;;;1.93;1.83;;;5.40;97.30;;;;;;4975017;28;20193;-88
2023/12/20 05:42:13;;;;;;;2.90;1.43;;;5.40;97.30;;;;;;4992308;28;20201;-87
2023/12/20 05:44:38;;;;;;;1.13;1.03;;;5.40;97.30;;;;;;4975258;28;20237;-88
2023/12/20 05:47:04;;;;;;;1.17;1.07;;;5.40;97.30;;;;;;4975259;28;20209;-87
2023/12/20 05:49:29;;;;;;;1.67;1.13;;;5.30;97.30;;;;;;4974811;28;20182;-88
2023/12/20 05:51:55;;;;;;;2.23;1.33;;;5.30;97.30;;;;;;4974770;28;20204;-89
2023/12/20 05:54:21;;;;;;;1.83;1.70;;;5.30;97.30;;;;;;4975073;28;20177;-88
2023/12/20 05:56:46;;;;;;;12.27;1.73;;;5.30;97.30;;;;;;4975022;28;20177;-88
2023/12/20 05:59:12;;;;;;;4.70;3.10;;;5.30;97.30;;;;;;4974848;28;20411;-89
2023/12/20 06:01:37;;;;;;;1.27;1.20;;;5.30;97.30;;;;;;4975101;28;20225;-87
2023/12/20 06:04:03;;;;;;;1.00;0.90;;;5.30;97.30;;;;;;4974960;28;20672;-87
2023/12/20 06:06:30;;;;;;;0.90;0.80;;;5.30;97.30;;;;;;4981812;28;20593;-88
2023/12/20 06:08:56;;;;;;;1.20;1.10;;;5.30;97.30;;;;;;4999978;28;20409;-88
2023/12/20 06:11:21;;;;;;;1.00;0.90;;;5.30;97.30;;;;;;4974531;28;20433;-88
2023/12/20 06:13:47;;;;;;;1.03;0.93;;;5.30;97.30;;;;;;4974424;28;20324;-89
2023/12/20 06:16:12;;;;;;;3.37;0.93;;;5.30;97.30;;;;;;4974839;28;20664;-88
2023/12/20 06:18:38;;;;;;;1.00;0.90;;;5.30;97.30;;;;;;4974488;28;20181;-88
2023/12/20 06:21:04;;;;;;;1.27;1.17;;;5.20;97.30;;;;;;4975321;28;20730;-87
2023/12/20 06:23:29;;;;;;;0.80;0.70;;;5.20;97.30;;;;;;4975108;28;20178;-88
2023/12/20 06:25:55;;;;;;;1.50;1.40;;;5.20;97.30;;;;;;4974902;28;20425;-86
2023/12/20 06:28:20;;;;;;;1.90;1.80;;;5.20;97.30;;;;;;4976420;28;20209;-87
2023/12/20 06:30:49;;;;;;;1.47;1.37;;;5.10;97.30;;;;;;4974388;28;20197;-87
2023/12/20 06:33:14;;;;;;;1.00;0.90;;;5.10;97.30;;;;;;4974648;28;20229;-88
2023/12/20 06:35:40;;;;;;;1.10;1.00;;;5.10;97.30;;;;;;4974692;28;20435;-87
2023/12/20 06:38:05;;;;;;;1.57;1.17;;;5.00;97.30;;;;;;4974706;28;20715;-88
2023/12/20 06:40:31;;;;;;;1.60;1.50;;;5.00;97.30;;;;;;4974388;28;20563;-88
2023/12/20 06:42:56;;;;;;;1.50;1.40;;;5.00;97.30;;;;;;4976699;28;20193;-88
2023/12/20 06:45:22;;;;;;;2.97;1.93;;;4.90;97.30;;;;;;4978512;28;20194;-88
2023/12/20 06:47:47;;;;;;;1.30;1.20;;;4.90;97.30;;;;;;4978610;28;20186;-88
2023/12/20 06:50:13;;;;;;;1.50;1.40;;;4.90;97.30;;;;;;4978226;28;20204;-88
2023/12/20 06:52:38;;;;;;;1.00;0.90;;;4.80;97.30;;;;;;4978174;28;20252;-88
2023/12/20 06:55:04;;;;;;;1.10;1.00;;;4.80;97.30;;;;;;4978502;28;20188;-88
2023/12/20 06:57:30;;;;;;;0.90;0.80;;;4.80;97.30;;;;;;4978229;28;20240;-88
2023/12/20 06:59:55;;;;;;;3.33;1.13;;;4.80;97.30;;;;;;4977892;28;20178;-88
2023/12/20 07:02:22;;;;;;;1.73;1.63;;;4.80;97.30;;;;;;4977773;28;20480;-89
2023/12/20 07:04:47;;;;;;;3.33;1.63;;;4.80;97.30;;;;;;4977958;28;20244;-88
2023/12/20 07:07:13;;;;;;;1.20;1.10;;;4.80;97.30;;;;;;4977364;28;20440;-88
2023/12/20 07:09:40;;;;;;;1.40;1.30;;;4.90;97.30;;;;;;4977546;28;20268;-87
2023/12/20 07:12:06;;;;;;;2.30;1.83;;;4.90;97.30;;;;;;4978031;28;20589;-88
2023/12/20 07:14:31;;;;;;;0.97;0.87;;;4.90;97.30;;;;;;4978022;28;20505;-88
2023/12/20 07:16:57;;;;;;;1.90;1.47;;;4.80;97.30;;;;;;4977802;28;20174;-88
2023/12/20 07:19:22;;;;;;;4.00;2.23;;;4.90;97.30;;;;;;4984952;28;20236;-88
2023/12/20 07:21:48;;;;;;;0.90;0.80;;;4.90;97.30;;;;;;4977202;28;20241;-89
2023/12/20 07:24:13;;;;;;;1.03;0.93;;;4.90;97.30;;;;;;4977195;28;20272;-88
2023/12/20 07:26:40;;;;;;;1.33;1.23;;;4.90;97.30;;;;;;4994468;28;20192;-88
2023/12/20 07:29:06;;;;;;;2.40;2.20;;;4.90;97.30;;;;;;4976457;28;20173;-87
2023/12/20 07:31:32;;;;;;;0.90;0.80;;;4.90;97.30;;;;;;4977511;28;20464;-89
2023/12/20 07:33:57;;;;;;;8.13;1.77;;;4.90;97.30;;;;;;4977526;28;20833;-88
2023/12/20 07:36:23;;;;;;;1.90;1.73;;;4.90;97.30;;;;;;4977433;28;20232;-88
2023/12/20 07:38:48;;;;;;;0.90;0.80;;;4.90;97.30;;;;;;4977463;28;20291;-88
2023/12/20 07:41:15;;;;;;;1.47;1.37;;;4.90;97.30;;;;;;4977509;28;20198;-88
2023/12/20 07:43:41;;;;;;;2.50;1.90;;;4.90;97.30;;;;;;4977590;28;20366;-88
2023/12/20 07:46:08;;;;;;;0.90;0.80;;;5.00;97.30;;;;;;4977402;28;20516;-88
2023/12/20 07:48:36;;;;;;;1.47;1.37;;;5.00;97.30;;;;;;4977670;28;20182;-88
2023/12/20 07:51:03;;;;;;;1.10;1.00;;;5.00;97.30;;;;;;4970558;28;20536;-88
2023/12/20 07:53:29;;;;;;;2.13;1.07;;;5.00;97.30;;;;;;4976527;28;20457;-88
2023/12/20 07:55:55;;;;;;;1.40;1.30;;;5.10;97.30;;;;;;4976806;28;20444;-87
2023/12/20 07:58:20;;;;;;;0.90;0.80;;;5.10;97.30;;;;;;4977620;28;20652;-87
2023/12/20 08:00:46;;;;;;;0.90;0.80;;;5.10;97.30;;;;;;4976903;28;20444;-88
2023/12/20 08:03:11;;;;;;;13.20;1.67;;;5.10;97.30;;;;;;4977468;28;20229;-88
2023/12/20 08:05:39;;;;;;;1.20;1.10;;;5.10;97.30;;;;;;4977128;28;20671;-88
2023/12/20 08:08:05;;;;;;;1.40;1.30;;;5.10;97.30;;;;;;4977666;28;20470;-88
2023/12/20 08:10:30;;;;;;;0.90;0.80;;;5.10;97.30;;;;;;4977091;28;20436;-88
2023/12/20 08:12:56;;;;;;;0.90;0.80;;;5.10;97.30;;;;;;4977050;28;20460;-88
2023/12/20 08:15:21;;;;;;;1.00;0.90;;;5.10;97.30;;;;;;4994565;28;20193;-89
2023/12/20 08:17:47;;;;;;;1.23;1.13;;;5.10;97.30;;;;;;4977398;28;20611;-88
2023/12/20 08:20:12;;;;;;;1.20;1.10;;;5.10;97.30;;;;;;4977620;28;20169;-88
2023/12/20 08:22:38;;;;;;;0.90;0.80;;;5.10;97.30;;;;;;4976659;28;20604;-89
2023/12/20 08:25:04;;;;;;;1.00;0.90;;;5.10;97.30;;;;;;4975991;28;20217;-88
2023/12/20 08:27:31;;;;;;;1.80;1.50;;;5.20;97.30;;;;;;4975753;28;20181;-88
2023/12/20 08:29:57;;;;;;;0.93;0.83;;;5.20;97.30;;;;;;4975964;28;20919;-88
2023/12/20 08:32:26;;;;;;;0.90;0.80;;;5.30;97.30;;;;;;4993187;28;20465;-88
2023/12/20 08:34:52;;;;;;;1.00;0.90;;;5.30;97.30;;;;;;4976085;28;20652;-89
2023/12/20 08:37:18;;;;;;;0.80;0.80;;;5.30;97.30;;;;;;4975551;28;20425;-88
2023/12/20 08:39:43;;;;;;;0.97;0.90;;;5.30;97.30;;;;;;4992956;28;20225;-88
2023/12/20 08:42:09;;;;;;;1.00;0.90;;;5.30;97.30;;;;;;4993116;28;20432;-88
2023/12/20 08:44:34;;;;;;;1.00;0.90;;;5.40;97.30;;;;;;4977370;28;20201;-87
2023/12/20 08:47:00;;;;;;;0.90;0.80;;;5.40;97.30;;;;;;4975360;28;20190;-88
2023/12/20 08:49:25;;;;;;;0.90;0.80;;;5.40;97.30;;;;;;4975886;28;20227;-87
2023/12/20 08:51:51;;;;;;;1.03;0.93;;;5.50;97.30;;;;;;4974029;28;20197;-88
2023/12/20 08:54:17;;;;;;;1.10;1.10;;;5.50;97.30;;;;;;4975496;28;20224;-88
2023/12/20 08:56:43;;;;;;;1.00;0.90;;;5.50;97.30;;;;;;4975248;28;20182;-86
2023/12/20 08:59:09;;;;;;;0.90;0.80;;;5.60;97.30;;;;;;4975725;28;20258;-87
2023/12/20 09:01:35;;;;;;;1.30;1.20;;;5.60;97.30;;;;;;4974917;28;20608;-88
2023/12/20 09:04:00;;;;;;;1.70;1.63;;;5.70;97.30;;;;;;4992752;28;20237;-88
2023/12/20 09:06:26;;;;;;;1.00;0.90;;;5.80;97.30;;;;;;4974936;28;20178;-88
2023/12/20 09:08:51;;;;;;;1.20;1.10;;;5.90;97.30;;;;;;4975474;28;20607;-87
2023/12/20 09:11:17;;;;;;;1.00;0.90;;;6.00;97.30;;;;;;4975171;28;20202;-88
2023/12/20 09:13:44;;;;;;;2.17;1.70;;;6.00;97.30;;;;;;4975090;28;20587;-88
2023/12/20 09:16:09;;;;;;;1.10;1.00;;;6.10;97.30;;;;;;4969552;28;20542;-87
2023/12/20 09:18:35;;;;;;;2.60;1.57;;;6.20;97.30;;;;;;4992768;28;20430;-88
2023/12/20 09:21:02;;;;;;;1.37;1.07;;;6.20;97.30;;;;;;4974868;28;20565;-87
2023/12/20 09:23:27;;;;;;;0.90;0.80;;;6.20;97.30;;;;;;4992921;28;20177;-87
2023/12/20 09:25:53;;;;;;;1.03;0.93;;;6.10;97.30;;;;;;4974832;28;20489;-88
2023/12/20 09:28:19;;;;;;;1.10;1.00;;;6.00;97.30;;;;;;4974813;28;20667;-88
2023/12/20 09:30:45;;;;;;;1.17;1.07;;;6.00;97.30;;;;;;4974544;28;20519;-89
2023/12/20 09:33:11;;;;;;;0.90;0.80;;;6.00;97.30;;;;;;4974814;28;20233;-88
2023/12/20 09:35:37;;;;;;;1.00;0.90;;;5.90;97.30;;;;;;4974790;28;20453;-88
2023/12/20 09:38:02;;;;;;;0.90;0.80;;;5.90;97.30;;;;;;4974756;28;20201;-88
2023/12/20 09:40:31;;;;;;;1.30;1.20;;;5.90;97.30;;;;;;4991836;28;20225;-86
2023/12/20 09:42:58;;;;;;;1.00;0.90;;;5.80;97.30;;;;;;4974868;28;20189;-88
2023/12/20 09:45:24;;;;;;;1.27;1.17;;;5.90;97.30;;;;;;4992268;28;20915;-89
2023/12/20 09:47:52;;;;;;;37.10;1.80;;;6.00;97.30;;;;;;4974061;28;20433;-88
2023/12/20 09:50:21;;;;;;;0.90;0.80;;;6.00;97.30;;;;;;4974294;28;20460;-89
2023/12/20 09:52:52;;;;;;;1.10;1.00;;;6.10;97.30;;;;;;4991396;28;21312;-88
2023/12/20 09:55:19;;;;;;;1.20;1.10;;;6.10;97.30;;;;;;4974268;28;20480;-89
2023/12/20 09:57:48;;;;;;;1.13;1.03;;;6.20;97.30;;;;;;4974074;28;20451;-88
2023/12/20 10:00:15;;;;;;;1.00;0.90;;;6.30;97.30;;;;;;4974618;28;20428;-87
2023/12/20 10:02:55;;;;;;;1.57;1.47;;;6.40;97.30;;;;;;4973564;28;20852;-88
2023/12/20 10:05:33;;;;;;;1.17;1.07;;;6.50;97.30;;;;;;4969947;28;20455;-88
2023/12/20 10:08:00;;;;;;;1.47;1.37;;;6.50;97.30;;;;;;4972354;28;20417;-89
2023/12/20 10:10:26;;;;;;;2.87;1.03;;;6.50;97.30;;;;;;5004189;28;20544;-88
2023/12/20 10:13:05;;;;;;;1.27;1.17;;;6.50;97.30;;;;;;4975436;28;20567;-87
2023/12/20 10:15:35;;;;;;;1.10;1.00;;;6.50;97.30;;;;;;4990225;28;20416;-87
2023/12/20 10:18:02;;;;;;;1.20;1.10;;;6.50;97.30;;;;;;4972136;28;20512;-88
2023/12/20 10:20:28;;;;;;;1.03;0.93;;;6.80;97.30;;;;;;4973612;28;20556;-88
2023/12/20 10:22:58;;;;;;;1.00;0.90;;;6.90;97.30;;;;;;4973914;28;21006;-87
2023/12/20 10:25:24;;;;;;;0.90;0.80;;;6.90;97.30;;;;;;4973872;28;20417;-88
2023/12/20 10:27:50;;;;;;;1.20;1.10;;;6.90;97.30;;;;;;4973447;28;20421;-87
2023/12/20 10:30:16;;;;;;;4.40;1.20;;;6.80;97.30;;;;;;4991356;28;20461;-88
2023/12/20 10:32:42;;;;;;;0.97;0.87;;;6.90;97.30;;;;;;4973615;28;20500;-90
2023/12/20 10:35:09;;;;;;;1.30;1.20;;;7.10;97.30;;;;;;4973574;28;20188;-87
2023/12/20 10:37:37;;;;;;;1.10;1.00;;;7.20;97.30;;;;;;4973702;28;20208;-88
2023/12/20 10:40:05;;;;;;;1.10;1.00;;;7.30;97.30;;;;;;4973924;28;20492;-88
2023/12/20 10:42:33;;;;;;;1.03;0.93;;;7.30;97.30;;;;;;4973708;28;20448;-88
2023/12/20 10:45:00;;;;;;;2.10;1.20;;;7.30;97.30;;;;;;4973745;28;20432;-87
2023/12/20 10:47:28;;;;;;;2.83;1.50;;;7.40;97.30;;;;;;4973561;28;20483;-87
2023/12/20 10:49:55;;;;;;;1.20;1.10;;;7.50;97.30;;;;;;4973588;28;20424;-88
2023/12/20 10:52:23;;;;;;;1.00;0.90;;;7.70;97.30;;;;;;4991107;28;20461;-90
2023/12/20 10:54:48;;;;;;;1.13;1.03;;;7.70;97.30;;;;;;4973493;28;20440;-88
2023/12/20 10:57:18;;;;;;;0.90;0.80;;;7.80;97.30;;;;;;4973696;28;20927;-88
2023/12/20 10:59:47;;;;;;;6.37;1.73;;;7.90;97.30;;;;;;4973547;28;20651;-88
2023/12/20 11:02:13;;;;;;;5.87;1.70;;;8.00;97.30;;;;;;4973069;28;20472;-89
2023/12/20 11:04:50;;;;;;;1.60;1.50;;;8.10;97.30;;;;;;4973643;28;20512;-88
2023/12/20 11:07:19;;;;;;;1.27;1.17;;;7.90;97.30;;;;;;4973403;28;20196;-88
2023/12/20 11:09:53;;;;;;;2.10;1.47;;;7.70;97.30;;;;;;4973707;28;20429;-88
2023/12/20 11:12:37;;;;;;;2.87;2.67;;;7.60;97.30;;;;;;4973562;28;20479;-88
2023/12/20 11:15:04;;;;;;;2.00;1.27;;;7.50;97.30;;;;;;4972508;28;20417;-88
2023/12/20 11:17:31;;;;;;;8.93;2.30;;;7.50;97.30;;;;;;4973683;28;20786;-87
2023/12/20 11:19:57;;;;;;;2.83;1.23;;;7.40;97.30;;;;;;4973553;28;20897;-88
2023/12/20 11:22:24;;;;;;;1.13;1.00;;;7.40;97.30;;;;;;4973575;28;20560;-88
2023/12/20 11:24:51;;;;;;;2.20;1.20;;;7.30;97.30;;;;;;4978080;28;20267;-88
2023/12/20 11:27:19;;;;;;;1.10;1.00;;;7.30;97.30;;;;;;4990343;28;20850;-88
2023/12/20 11:29:51;;;;;;;2.60;1.67;;;7.30;97.30;;;;;;4976326;28;20456;-87
2023/12/20 11:32:29;;;;;;;1.50;1.40;;;7.20;97.30;;;;;;4977008;28;20460;-89
2023/12/20 11:35:15;;;;;;;1.30;1.20;;;7.20;97.30;;;;;;4974692;28;20793;-86
2023/12/20 11:37:42;;;;;;;1.00;0.90;;;7.20;97.30;;;;;;4964316;28;20520;-86
2023/12/20 11:40:14;;;;;;;0.90;0.80;;;7.20;97.30;;;;;;4976903;28;20800;-87
2023/12/20 11:42:41;;;;;;;2.10;1.73;;;7.30;97.30;;;;;;4976962;28;20528;-87
2023/12/20 11:45:10;;;;;;;7.03;1.53;;;7.30;97.30;;;;;;4994281;28;20475;-87
2023/12/20 11:47:36;;;;;;;1.07;1.00;;;7.20;97.30;;;;;;4976719;28;20425;-88
2023/12/20 11:50:03;;;;;;;1.20;1.10;;;7.20;97.30;;;;;;4976614;28;20427;-86
2023/12/20 11:52:29;;;;;;;1.10;1.00;;;7.20;97.30;;;;;;4976550;28;20225;-87
2023/12/20 11:54:55;;;;;;;1.40;1.30;;;7.20;97.30;;;;;;4976636;28;20421;-87
2023/12/20 11:57:21;;;;;;;4.00;1.53;;;7.20;97.30;;;;;;4976521;28;20436;-88
2023/12/20 11:59:46;;;;;;;2.70;1.20;;;7.20;97.30;;;;;;4994151;28;20189;-88
2023/12/20 12:02:12;;;;;;;1.07;0.97;;;7.10;97.30;;;;;;4976178;28;20240;-87
2023/12/20 12:04:38;;;;;;;1.00;0.90;;;7.10;97.30;;;;;;4976345;28;20213;-88
2023/12/20 12:07:04;;;;;;;1.20;1.17;;;7.10;97.30;;;;;;4976543;28;20185;-88
2023/12/20 12:09:29;;;;;;;1.00;0.90;;;7.10;97.30;;;;;;4976343;28;20177;-87
2023/12/20 12:11:55;;;;;;;1.67;1.67;;;7.10;97.30;;;;;;4993523;28;20194;-88
2023/12/20 12:14:20;;;;;;;1.10;1.00;;;7.20;97.30;;;;;;4993661;28;20201;-88
2023/12/20 12:16:46;;;;;;;1.20;1.10;;;7.20;97.30;;;;;;4993641;28;20174;-87
2023/12/20 12:19:23;;;;;;;1.50;1.40;;;7.10;97.30;;;;;;4993654;28;20177;-88
2023/12/20 12:22:05;;;;;;;1.30;1.20;;;7.10;97.30;;;;;;4993622;28;20443;-87
2023/12/20 12:24:30;;;;;;;1.10;1.00;;;7.10;97.30;;;;;;4973230;28;20503;-89
2023/12/20 12:26:58;;;;;;;0.90;0.80;;;7.20;97.30;;;;;;4976105;28;20449;-88
2023/12/20 12:29:24;;;;;;;1.40;1.20;;;7.10;97.30;;;;;;4972499;28;20190;-89
2023/12/20 12:31:50;;;;;;;2.23;2.07;;;7.10;97.30;;;;;;4975743;28;20993;-90
2023/12/20 12:34:17;;;;;;;1.00;0.90;;;7.20;97.30;;;;;;4979888;28;20426;-88
2023/12/20 12:36:43;;;;;;;1.40;1.30;;;7.30;97.30;;;;;;4985676;28;20842;-87
2023/12/20 12:39:11;;;;;;;0.90;0.80;;;7.30;97.30;;;;;;4980632;28;20408;-89
2023/12/20 12:41:37;;;;;;;1.00;0.90;;;7.30;97.30;;;;;;4998852;28;20501;-87
2023/12/20 12:44:02;;;;;;;1.03;1.00;;;7.30;97.30;;;;;;4981882;28;20504;-87
2023/12/20 12:46:28;;;;;;;1.30;1.20;;;7.30;97.30;;;;;;4981050;28;20208;-88
2023/12/20 12:48:53;;;;;;;0.90;0.80;;;7.30;97.30;;;;;;4983017;28;20648;-87
2023/12/20 12:51:19;;;;;;;3.63;1.30;;;7.20;97.30;;;;;;4981696;28;20582;-87
2023/12/20 12:53:44;;;;;;;0.90;0.80;;;7.30;97.30;;;;;;4998264;28;20212;-88
2023/12/20 12:56:12;;;;;;;1.00;0.90;;;7.40;97.30;;;;;;4986202;28;20178;-88
2023/12/20 12:58:38;;;;;;;1.43;1.20;;;7.50;97.30;;;;;;4985613;28;20180;-90
2023/12/20 13:01:03;;;;;;;1.73;1.63;;;7.50;97.30;;;;;;4981230;28;21070;-88
2023/12/20 13:03:29;;;;;;;1.13;1.03;;;7.50;97.30;;;;;;4980247;28;20228;-86
2023/12/20 13:05:55;;;;;;;0.90;0.80;;;7.40;97.30;;;;;;4979407;28;20190;-88
2023/12/20 13:08:20;;;;;;;0.80;0.70;;;7.40;97.30;;;;;;4976040;28;20190;-88
2023/12/20 13:10:46;;;;;;;1.03;1.00;;;7.30;97.30;;;;;;4976273;28;20444;-90
2023/12/20 13:13:11;;;;;;;1.00;0.90;;;7.30;97.30;;;;;;4975811;28;20213;-89
2023/12/20 13:15:37;;;;;;;0.90;0.80;;;7.20;97.30;;;;;;4975824;28;20292;-87
2023/12/20 13:18:04;;;;;;;1.07;0.80;;;7.20;97.30;;;;;;4992779;28;20182;-89
2023/12/20 13:20:29;;;;;;;3.37;0.87;;;7.20;97.30;;;;;;4974965;28;20182;-87
2023/12/20 13:22:55;;;;;;;17.03;1.33;;;7.20;97.30;;;;;;4975468;28;20463;-88
2023/12/20 13:25:20;;;;;;;1.07;0.97;;;7.30;97.30;;;;;;4975035;28;20640;-89
2023/12/20 13:27:46;;;;;;;1.10;1.03;;;7.40;97.30;;;;;;4974710;28;20178;-88
2023/12/20 13:30:12;;;;;;;0.97;0.87;;;7.60;97.30;;;;;;4974867;28;20182;-88
2023/12/20 13:32:37;;;;;;;0.90;0.80;;;8.00;97.30;;;;;;4974464;28;20213;-88
2023/12/20 13:35:04;;;;;;;2.87;0.90;;;8.30;97.30;;;;;;4974756;28;20232;-86
2023/12/20 13:37:29;;;;;;;1.07;0.97;;;8.50;97.30;;;;;;4975169;28;20219;-89
2023/12/20 13:39:55;;;;;;;1.30;1.20;;;8.40;97.30;;;;;;4974605;28;20425;-88
2023/12/20 13:42:20;;;;;;;0.90;0.80;;;8.50;97.30;;;;;;4974384;28;20201;-88
2023/12/20 13:44:46;;;;;;;1.10;1.00;;;8.60;97.30;;;;;;4974898;28;20184;-88
2023/12/20 13:47:12;;;;;;;1.00;0.90;;;8.60;97.30;;;;;;4974471;28;20598;-88
2023/12/20 13:49:37;;;;;;;1.50;1.17;;;8.30;97.30;;;;;;4974304;28;20435;-88
2023/12/20 13:52:04;;;;;;;0.90;0.80;;;8.30;97.30;;;;;;5004238;23;20290;-92
2023/12/20 13:54:29;;;;;;;1.03;0.93;;;8.40;97.30;;;;;;4992399;28;20185;-91
2023/12/20 13:56:55;;;;;;;1.00;0.90;;;8.50;97.30;;;;;;4994936;28;20419;-90
2023/12/20 13:59:20;;;;;;;7.93;1.57;;;8.70;97.30;;;;;;4995318;28;20184;-91
2023/12/20 14:01:46;;;;;;;1.43;1.33;;;8.70;97.30;;;;;;4989240;28;20193;-91
2023/12/20 14:04:11;;;;;;;1.67;1.60;;;8.60;97.30;;;;;;4975601;28;20188;-93
2023/12/20 14:06:37;;;;;;;17.37;1.37;;;8.60;97.30;;;;;;4976540;28;20667;-90
2023/12/20 14:09:03;;;;;;;1.43;1.37;;;8.50;97.30;;;;;;4976626;28;20174;-91
2023/12/20 14:11:28;;;;;;;1.33;1.00;;;8.30;97.30;;;;;;4975674;28;20197;-90
2023/12/20 14:13:57;;;;;;;1.57;1.47;;;8.30;97.30;;;;;;4975761;28;20726;-91
2023/12/20 14:16:24;;;;;;;0.90;0.80;;;8.00;97.30;;;;;;4975231;28;20233;-91
2023/12/20 14:18:51;;;;;;;1.13;1.03;;;7.80;97.30;;;;;;4975526;28;20443;-91
2023/12/20 14:21:17;;;;;;;1.93;1.47;;;7.70;97.30;;;;;;4992526;28;20500;-92
2023/12/20 14:23:43;;;;;;;6.67;1.63;;;7.60;97.30;;;;;;4975086;28;21007;-92
2023/12/20 14:26:14;;;;;;;1.07;0.97;;;7.50;97.30;;;;;;4975213;28;20178;-92
2023/12/20 14:28:41;;;;;;;1.00;0.90;;;7.40;97.30;;;;;;4975554;28;20420;-89
2023/12/20 14:31:06;;;;;;;1.10;1.00;;;7.30;97.30;;;;;;4992250;28;20436;-90
2023/12/20 14:33:32;;;;;;;1.83;1.73;;;7.30;97.30;;;;;;4975210;28;20445;-92
2023/12/20 14:35:57;;;;;;;1.00;0.90;;;7.30;97.30;;;;;;4975208;28;20366;-91
2023/12/20 14:38:23;;;;;;;1.10;1.00;;;7.30;97.30;;;;;;4974935;28;20578;-91
2023/12/20 14:40:49;;;;;;;2.10;1.10;;;7.20;97.30;;;;;;4975022;28;20625;-90
2023/12/20 14:43:14;;;;;;;1.30;1.20;;;7.20;97.30;;;;;;4992332;28;20201;-91
2023/12/20 14:45:39;;;;;;;1.17;1.07;;;7.20;97.30;;;;;;4975032;28;20184;-91
2023/12/20 14:48:05;;;;;;;5.10;2.70;;;7.10;97.30;;;;;;4975076;28;20193;-91
2023/12/20 14:50:31;;;;;;;0.90;0.80;;;7.10;97.30;;;;;;4974954;28;20213;-91
2023/12/20 14:52:56;;;;;;;2.13;1.97;;;7.10;97.30;;;;;;4974913;28;20222;-90
2023/12/20 14:55:22;;;;;;;1.73;1.63;;;7.10;97.30;;;;;;4975234;28;20188;-91
2023/12/20 14:57:49;;;;;;;1.60;1.50;;;7.00;97.30;;;;;;4992768;28;20193;-90
2023/12/20 15:00:16;;;;;;;1.90;1.80;;;7.00;97.30;;;;;;4974668;28;20267;-89
2023/12/20 15:02:42;;;;;;;1.30;1.20;;;7.00;97.30;;;;;;4975833;28;20909;-91
2023/12/20 15:05:07;;;;;;;1.57;1.47;;;7.10;97.30;;;;;;4979277;28;20425;-91
2023/12/20 15:07:33;;;;;;;1.57;1.10;;;7.10;97.30;;;;;;4980344;28;20182;-91
2023/12/20 15:09:58;;;;;;;1.20;1.10;;;7.10;97.30;;;;;;4980485;28;20645;-92
2023/12/20 15:12:24;;;;;;;1.33;1.23;;;7.10;97.30;;;;;;4991324;28;20207;-91
2023/12/20 15:14:49;;;;;;;1.13;1.03;;;7.10;97.30;;;;;;4985434;28;20174;-89
2023/12/20 15:17:15;;;;;;;1.10;1.00;;;7.10;97.30;;;;;;4978589;28;20181;-92
2023/12/20 15:19:42;;;;;;;0.90;0.80;;;7.00;97.30;;;;;;4978815;28;20640;-90
2023/12/20 15:22:08;;;;;;;1.47;1.20;;;6.90;97.30;;;;;;4978237;28;20812;-89
2023/12/20 15:24:38;;;;;;;1.70;1.60;;;6.90;97.30;;;;;;4977969;28;20431;-89
2023/12/20 15:27:05;;;;;;;1.20;1.10;;;6.80;97.30;;;;;;4996015;28;20188;-89
2023/12/20 15:29:31;;;;;;;1.03;0.93;;;6.80;97.30;;;;;;4995671;28;20765;-93
2023/12/20 15:31:56;;;;;;;1.57;1.10;;;6.80;97.30;;;;;;4978169;28;21024;-91
2023/12/20 15:34:22;;;;;;;0.90;0.80;;;6.80;97.30;;;;;;4978573;28;20421;-92
2023/12/20 15:36:48;;;;;;;1.07;0.97;;;6.80;97.30;;;;;;4978003;28;20178;-91
2023/12/20 15:39:16;;;;;;;1.57;1.47;;;6.80;97.30;;;;;;4978016;28;20692;-91
2023/12/20 15:41:42;;;;;;;0.90;0.80;;;6.80;97.30;;;;;;4977936;28;20226;-91
2023/12/20 15:44:07;;;;;;;2.03;1.57;;;6.80;97.30;;;;;;4978274;28;20449;-91
2023/12/20 15:46:33;;;;;;;1.00;0.90;;;6.80;97.30;;;;;;4977670;28;20186;-91
2023/12/20 15:48:59;;;;;;;2.03;0.90;;;6.80;97.30;;;;;;4977773;28;20416;-91
2023/12/20 15:51:24;;;;;;;1.47;1.37;;;6.80;97.30;;;;;;4977445;28;20616;-91
2023/12/20 15:53:50;;;;;;;1.63;1.30;;;6.80;97.30;;;;;;4977700;28;20230;-92
2023/12/20 15:56:17;;;;;;;1.30;1.20;;;6.70;97.30;;;;;;4977447;28;20178;-91
2023/12/20 15:58:42;;;;;;;1.03;0.93;;;6.80;97.30;;;;;;4977267;28;20202;-91
2023/12/20 16:01:08;;;;;;;2.23;2.03;;;6.70;97.30;;;;;;4977104;28;20479;-91
2023/12/20 16:03:34;;;;;;;1.67;1.43;;;6.70;97.30;;;;;;4977556;28;20170;-90
2023/12/20 16:05:59;;;;;;;0.90;0.80;;;6.70;97.30;;;;;;4977091;28;20605;-90
2023/12/20 16:08:25;;;;;;;1.10;1.00;;;6.70;97.30;;;;;;4975748;28;20194;-91
2023/12/20 16:10:51;;;;;;;1.00;0.90;;;6.70;97.30;;;;;;4975550;28;20192;-91
2023/12/20 16:13:16;;;;;;;1.30;1.03;;;6.70;97.30;;;;;;4993172;28;20214;-89
2023/12/20 16:15:42;;;;;;;1.20;1.10;;;6.70;97.30;;;;;;4974465;28;20930;-91
2023/12/20 16:18:10;;;;;;;1.00;0.90;;;6.70;97.30;;;;;;4975703;28;20177;-91
2023/12/20 16:20:39;;;;;;;1.17;1.07;;;6.60;97.30;;;;;;4975520;28;20182;-90
2023/12/20 16:23:05;;;;;;;1.37;1.00;;;6.60;97.30;;;;;;4982314;28;20490;-90
2023/12/20 16:25:31;;;;;;;1.07;0.97;;;6.60;97.30;;;;;;4976666;28;20942;-90
2023/12/20 16:27:56;;;;;;;1.63;1.50;;;6.40;97.30;;;;;;4974841;28;20218;-90
2023/12/20 16:30:22;;;;;;;0.90;0.80;;;6.20;97.30;;;;;;4992331;28;20852;-91
2023/12/20 16:32:48;;;;;;;1.20;1.10;;;6.10;97.30;;;;;;4975404;28;20304;-90
2023/12/20 16:35:13;;;;;;;0.90;0.80;;;6.00;97.30;;;;;;4975195;28;20210;-90
2023/12/20 16:37:39;;;;;;;1.03;0.93;;;5.90;97.30;;;;;;4975118;28;20439;-90
2023/12/20 16:40:07;;;;;;;1.23;1.17;;;5.90;97.30;;;;;;4975485;28;20193;-89
2023/12/20 16:42:32;;;;;;;3.13;1.30;;;5.90;97.30;;;;;;4974883;28;20204;-89
2023/12/20 16:44:58;;;;;;;0.90;0.80;;;5.90;97.30;;;;;;4975232;28;21271;-89
2023/12/20 16:47:23;;;;;;;1.00;0.90;;;5.90;97.30;;;;;;4975092;28;20193;-90
2023/12/20 16:49:49;;;;;;;1.83;1.73;;;6.00;97.30;;;;;;4992426;28;20269;-91
2023/12/20 16:52:14;;;;;;;1.13;1.03;;;6.00;97.30;;;;;;4974888;28;20242;-90
2023/12/20 16:54:40;;;;;;;1.53;1.47;;;6.00;97.30;;;;;;4975063;28;20578;-89
2023/12/20 16:57:06;;;;;;;1.20;1.10;;;5.90;97.30;;;;;;4974868;28;20233;-88
2023/12/20 16:59:32;;;;;;;1.10;1.00;;;5.90;97.30;;;;;;4975273;28;20439;-89
2023/12/20 17:01:58;;;;;;;1.30;1.20;;;5.90;97.30;;;;;;4993877;28;20445;-90
2023/12/20 17:04:23;;;;;;;1.00;0.90;;;5.90;97.30;;;;;;4977399;28;20182;-91
2023/12/20 17:06:49;;;;;;;0.90;0.87;;;5.80;97.30;;;;;;4974923;28;20656;-89
2023/12/20 17:09:18;;;;;;;1.00;0.90;;;5.80;97.30;;;;;;4992724;28;20221;-90
2023/12/20 17:11:43;;;;;;;0.90;0.80;;;5.80;97.30;;;;;;4974332;28;20524;-90
2023/12/20 17:14:10;;;;;;;1.20;1.10;;;5.80;97.30;;;;;;4992054;28;20619;-90
2023/12/20 17:16:36;;;;;;;1.00;0.90;;;5.80;97.30;;;;;;4991719;28;20352;-90
2023/12/20 17:19:04;;;;;;;0.90;0.80;;;5.80;97.30;;;;;;4992240;28;20978;-90
2023/12/20 17:21:32;;;;;;;0.90;0.83;;;5.80;97.30;;;;;;4974164;28;20206;-88
2023/12/20 17:23:58;;;;;;;0.97;0.87;;;5.70;97.30;;;;;;4974639;28;20467;-89
2023/12/20 17:26:23;;;;;;;1.30;1.20;;;5.70;97.30;;;;;;4973922;28;20433;-90
2023/12/20 17:28:48;;;;;;;0.90;0.80;;;5.70;97.30;;;;;;4975293;28;20180;-90
2023/12/20 17:31:14;;;;;;;0.90;0.80;;;5.60;97.30;;;;;;4974646;28;20347;-90
2023/12/20 17:33:40;;;;;;;0.90;0.90;;;5.60;97.30;;;;;;4975495;28;20722;-89
2023/12/20 17:36:06;;;;;;;1.00;0.90;;;5.60;97.30;;;;;;4975853;28;20182;-90
2023/12/20 17:38:36;;;;;;;1.03;0.93;;;5.60;97.30;;;;;;4992772;28;20174;-89
2023/12/20 17:41:01;;;;;;;0.90;0.80;;;5.60;97.30;;;;;;4975604;28;20424;-91
2023/12/20 17:43:27;;;;;;;1.00;0.90;;;5.50;97.30;;;;;;4980802;28;20445;-90
2023/12/20 17:45:52;;;;;;;1.00;0.90;;;5.50;97.30;;;;;;4974561;28;20177;-90
2023/12/20 17:48:18;;;;;;;0.90;0.80;;;5.50;97.30;;;;;;4992073;28;20259;-90
2023/12/20 17:50:43;;;;;;;0.90;0.80;;;5.50;97.30;;;;;;4974092;28;20181;-91
2023/12/20 17:53:09;;;;;;;0.90;0.80;;;5.50;97.30;;;;;;4973669;28;20233;-89